sensor_id;sensor_type;location;lat;lon;timestamp;P1;durP1;ratioP1;P2;durP2;ratioP2
53939;SDS011;39850;43.324;21.916;2022-11-03T00:05:49;89.0;;;56.0;;
53939;SDS011;39850;43.324;21.916;2022-11-03T00:10:25;89.0;;;56.0;;
53939;SDS011;39850;43.324;21.916;2022-11-03T00:15:03;89.0;;;56.0;;
53939;SDS011;39850;43.324;21.916;2022-11-03T00:19:40;89.0;;;56.0;;
53939;SDS011;39850;43.324;21.916;2022-11-03T00:24:16;89.0;;;56.0;;
53939;SDS011;39850;43.324;21.916;2022-11-03T00:28:59;89.0;;;56.0;;
53939;SDS011;39850;43.324;21.916;2022-11-03T00:33:45;88.0;;;56.0;;
53939;SDS011;39850;43.324;21.916;2022-11-03T00:38:24;88.0;;;56.0;;
53939;SDS011;39850;43.324;21.916;2022-11-03T00:43:01;86.0;;;55.0;;
53939;SDS011;39850;43.324;21.916;2022-11-03T00:47:37;86.0;;;55.0;;
53939;SDS011;39850;43.324;21.916;2022-11-03T00:52:14;86.0;;;55.0;;
53939;SDS011;39850;43.324;21.916;2022-11-03T01:24:43;85.0;;;56.0;;
53939;SDS011;39850;43.324;21.916;2022-11-03T01:29:20;85.0;;;56.0;;
53939;SDS011;39850;43.324;21.916;2022-11-03T01:33:57;84.0;;;56.0;;
53939;SDS011;39850;43.324;21.916;2022-11-03T01:38:37;84.0;;;56.0;;
53939;SDS011;39850;43.324;21.916;2022-11-03T01:43:16;84.0;;;55.0;;
53939;SDS011;39850;43.324;21.916;2022-11-03T01:47:56;84.0;;;55.0;;
53939;SDS011;39850;43.324;21.916;2022-11-03T01:52:46;82.0;;;55.0;;
53939;SDS011;39850;43.324;21.916;2022-11-03T01:57:45;82.0;;;55.0;;
53939;SDS011;39850;43.324;21.916;2022-11-03T02:02:31;82.0;;;55.0;;
53939;SDS011;39850;43.324;21.916;2022-11-03T02:07:27;80.0;;;55.0;;
53939;SDS011;39850;43.324;21.916;2022-11-03T02:12:19;80.0;;;55.0;;
53939;SDS011;39850;43.324;21.916;2022-11-03T02:47:03;88.0;;;57.0;;
53939;SDS011;39850;43.324;21.916;2022-11-03T02:51:43;88.0;;;57.0;;
53939;SDS011;39850;43.324;21.916;2022-11-03T02:56:24;88.0;;;57.0;;
53939;SDS011;39850;43.324;21.916;2022-11-03T03:01:18;88.0;;;57.0;;
53939;SDS011;39850;43.324;21.916;2022-11-03T03:06:17;88.0;;;57.0;;
53939;SDS011;39850;43.324;21.916;2022-11-03T03:11:07;88.0;;;57.0;;
53939;SDS011;39850;43.324;21.916;2022-11-03T03:16:16;89.0;;;56.0;;
53939;SDS011;39850;43.324;21.916;2022-11-03T03:21:22;89.0;;;56.0;;
53939;SDS011;39850;43.324;21.916;2022-11-03T03:26:31;91.0;;;56.0;;
53939;SDS011;39850;43.324;21.916;2022-11-03T03:31:23;91.0;;;56.0;;
53939;SDS011;39850;43.324;21.916;2022-11-03T04:04:51;99.0;;;55.0;;
53939;SDS011;39850;43.324;21.916;2022-11-03T04:09:28;99.0;;;55.0;;
53939;SDS011;39850;43.324;21.916;2022-11-03T04:14:04;99.0;;;55.0;;
53939;SDS011;39850;43.324;21.916;2022-11-03T04:18:41;99.0;;;55.0;;
53939;SDS011;39850;43.324;21.916;2022-11-03T04:23:19;89.0;;;52.0;;
53939;SDS011;39850;43.324;21.916;2022-11-03T04:27:55;89.0;;;52.0;;
53939;SDS011;39850;43.324;21.916;2022-11-03T04:32:35;89.0;;;52.0;;
53939;SDS011;39850;43.324;21.916;2022-11-03T04:37:16;79.0;;;48.0;;
53939;SDS011;39850;43.324;21.916;2022-11-03T04:41:53;79.0;;;48.0;;
53939;SDS011;39850;43.324;21.916;2022-11-03T04:46:31;79.0;;;48.0;;
53939;SDS011;39850;43.324;21.916;2022-11-03T04:51:21;79.0;;;48.0;;
53939;SDS011;39850;43.324;21.916;2022-11-03T05:25:41;79.0;;;48.0;;
53939;SDS011;39850;43.324;21.916;2022-11-03T05:30:20;79.0;;;48.0;;
53939;SDS011;39850;43.324;21.916;2022-11-03T05:34:57;78.0;;;48.0;;
53939;SDS011;39850;43.324;21.916;2022-11-03T05:39:43;78.0;;;48.0;;
53939;SDS011;39850;43.324;21.916;2022-11-03T05:44:36;79.0;;;48.0;;
53939;SDS011;39850;43.324;21.916;2022-11-03T05:49:15;79.0;;;48.0;;
53939;SDS011;39850;43.324;21.916;2022-11-03T05:54:06;79.0;;;48.0;;
53939;SDS011;39850;43.324;21.916;2022-11-03T05:59:03;79.0;;;48.0;;
53939;SDS011;39850;43.324;21.916;2022-11-03T06:03:42;81.0;;;48.0;;
53939;SDS011;39850;43.324;21.916;2022-11-03T06:08:33;81.0;;;48.0;;
53939;SDS011;39850;43.324;21.916;2022-11-03T06:13:23;81.0;;;48.0;;
53939;SDS011;39850;43.324;21.916;2022-11-03T06:46:32;133.0;;;70.0;;
53939;SDS011;39850;43.324;21.916;2022-11-03T06:51:25;133.0;;;70.0;;
53939;SDS011;39850;43.324;21.916;2022-11-03T06:56:17;140.0;;;72.0;;
53939;SDS011;39850;43.324;21.916;2022-11-03T07:01:14;140.0;;;72.0;;
53939;SDS011;39850;43.324;21.916;2022-11-03T07:06:13;145.0;;;71.0;;
53939;SDS011;39850;43.324;21.916;2022-11-03T07:11:16;145.0;;;71.0;;
53939;SDS011;39850;43.324;21.916;2022-11-03T07:15:56;146.0;;;72.0;;
53939;SDS011;39850;43.324;21.916;2022-11-03T07:20:33;146.0;;;72.0;;
53939;SDS011;39850;43.324;21.916;2022-11-03T07:25:20;145.0;;;71.0;;
53939;SDS011;39850;43.324;21.916;2022-11-03T07:30:19;145.0;;;71.0;;
53939;SDS011;39850;43.324;21.916;2022-11-03T08:08:43;109.0;;;62.0;;
53939;SDS011;39850;43.324;21.916;2022-11-03T08:13:19;109.0;;;62.0;;
53939;SDS011;39850;43.324;21.916;2022-11-03T08:17:56;108.0;;;62.0;;
53939;SDS011;39850;43.324;21.916;2022-11-03T08:22:32;108.0;;;62.0;;
53939;SDS011;39850;43.324;21.916;2022-11-03T08:27:09;106.0;;;62.0;;
53939;SDS011;39850;43.324;21.916;2022-11-03T08:31:46;106.0;;;62.0;;
53939;SDS011;39850;43.324;21.916;2022-11-03T08:36:23;105.0;;;62.0;;
53939;SDS011;39850;43.324;21.916;2022-11-03T08:41:00;105.0;;;62.0;;
53939;SDS011;39850;43.324;21.916;2022-11-03T08:45:37;104.0;;;62.0;;
53939;SDS011;39850;43.324;21.916;2022-11-03T08:50:14;104.0;;;62.0;;
53939;SDS011;39850;43.324;21.916;2022-11-03T09:27:07;106.0;;;65.0;;
53939;SDS011;39850;43.324;21.916;2022-11-03T09:31:44;106.0;;;65.0;;
53939;SDS011;39850;43.324;21.916;2022-11-03T09:36:20;108.0;;;66.0;;
53939;SDS011;39850;43.324;21.916;2022-11-03T09:40:57;108.0;;;66.0;;
53939;SDS011;39850;43.324;21.916;2022-11-03T09:45:35;109.0;;;67.0;;
53939;SDS011;39850;43.324;21.916;2022-11-03T09:50:19;109.0;;;67.0;;
53939;SDS011;39850;43.324;21.916;2022-11-03T09:54:56;111.0;;;68.0;;
53939;SDS011;39850;43.324;21.916;2022-11-03T09:59:35;111.0;;;68.0;;
53939;SDS011;39850;43.324;21.916;2022-11-03T10:04:18;111.0;;;68.0;;
53939;SDS011;39850;43.324;21.916;2022-11-03T10:09:03;113.0;;;69.0;;
53939;SDS011;39850;43.324;21.916;2022-11-03T10:13:53;113.0;;;69.0;;
53939;SDS011;39850;43.324;21.916;2022-11-03T10:46:39;120.0;;;76.0;;
53939;SDS011;39850;43.324;21.916;2022-11-03T10:51:16;120.0;;;76.0;;
53939;SDS011;39850;43.324;21.916;2022-11-03T10:55:52;122.0;;;76.0;;
53939;SDS011;39850;43.324;21.916;2022-11-03T11:00:30;122.0;;;76.0;;
53939;SDS011;39850;43.324;21.916;2022-11-03T11:05:20;120.0;;;76.0;;
53939;SDS011;39850;43.324;21.916;2022-11-03T11:10:16;120.0;;;76.0;;
53939;SDS011;39850;43.324;21.916;2022-11-03T11:15:02;120.0;;;76.0;;
53939;SDS011;39850;43.324;21.916;2022-11-03T11:20:37;120.0;;;76.0;;
53939;SDS011;39850;43.324;21.916;2022-11-03T11:25:19;116.0;;;76.0;;
53939;SDS011;39850;43.324;21.916;2022-11-03T11:29:56;116.0;;;76.0;;
53939;SDS011;39850;43.324;21.916;2022-11-03T12:05:36;103.0;;;71.0;;
53939;SDS011;39850;43.324;21.916;2022-11-03T12:10:23;103.0;;;71.0;;
53939;SDS011;39850;43.324;21.916;2022-11-03T12:15:01;107.0;;;73.0;;
53939;SDS011;39850;43.324;21.916;2022-11-03T12:19:43;107.0;;;73.0;;
53939;SDS011;39850;43.324;21.916;2022-11-03T12:24:47;107.0;;;73.0;;
53939;SDS011;39850;43.324;21.916;2022-11-03T12:29:27;111.0;;;75.0;;
53939;SDS011;39850;43.324;21.916;2022-11-03T12:34:04;111.0;;;75.0;;
53939;SDS011;39850;43.324;21.916;2022-11-03T12:38:41;112.0;;;76.0;;
53939;SDS011;39850;43.324;21.916;2022-11-03T12:43:19;112.0;;;76.0;;
53939;SDS011;39850;43.324;21.916;2022-11-03T12:47:56;112.0;;;77.0;;
53939;SDS011;39850;43.324;21.916;2022-11-03T12:52:33;112.0;;;77.0;;
53939;SDS011;39850;43.324;21.916;2022-11-03T13:29:25;93.0;;;65.0;;
53939;SDS011;39850;43.324;21.916;2022-11-03T13:34:01;93.0;;;65.0;;
53939;SDS011;39850;43.324;21.916;2022-11-03T13:38:38;104.0;;;72.0;;
53939;SDS011;39850;43.324;21.916;2022-11-03T13:43:14;104.0;;;72.0;;
53939;SDS011;39850;43.324;21.916;2022-11-03T13:47:51;113.0;;;76.0;;
53939;SDS011;39850;43.324;21.916;2022-11-03T13:52:28;113.0;;;76.0;;
53939;SDS011;39850;43.324;21.916;2022-11-03T13:57:05;114.0;;;77.0;;
53939;SDS011;39850;43.324;21.916;2022-11-03T14:01:42;114.0;;;77.0;;
53939;SDS011;39850;43.324;21.916;2022-11-03T14:06:19;113.0;;;76.0;;
53939;SDS011;39850;43.324;21.916;2022-11-03T14:10:55;113.0;;;76.0;;
53939;SDS011;39850;43.324;21.916;2022-11-03T14:47:54;120.0;;;81.0;;
53939;SDS011;39850;43.324;21.916;2022-11-03T14:52:30;120.0;;;81.0;;
53939;SDS011;39850;43.324;21.916;2022-11-03T14:57:07;112.0;;;78.0;;
53939;SDS011;39850;43.324;21.916;2022-11-03T15:01:47;112.0;;;78.0;;
53939;SDS011;39850;43.324;21.916;2022-11-03T15:06:26;105.0;;;74.0;;
53939;SDS011;39850;43.324;21.916;2022-11-03T15:11:06;105.0;;;74.0;;
53939;SDS011;39850;43.324;21.916;2022-11-03T15:15:44;104.0;;;72.0;;
53939;SDS011;39850;43.324;21.916;2022-11-03T15:20:21;104.0;;;72.0;;
53939;SDS011;39850;43.324;21.916;2022-11-03T15:24:58;104.0;;;72.0;;
53939;SDS011;39850;43.324;21.916;2022-11-03T15:29:34;104.0;;;70.0;;
53939;SDS011;39850;43.324;21.916;2022-11-03T15:34:11;104.0;;;70.0;;
53939;SDS011;39850;43.324;21.916;2022-11-03T16:06:29;156.0;;;107.0;;
53939;SDS011;39850;43.324;21.916;2022-11-03T16:11:06;156.0;;;107.0;;
53939;SDS011;39850;43.324;21.916;2022-11-03T16:15:43;156.0;;;107.0;;
53939;SDS011;39850;43.324;21.916;2022-11-03T16:20:20;156.0;;;107.0;;
53939;SDS011;39850;43.324;21.916;2022-11-03T16:24:56;156.0;;;107.0;;
53939;SDS011;39850;43.324;21.916;2022-11-03T16:29:33;170.0;;;117.0;;
53939;SDS011;39850;43.324;21.916;2022-11-03T16:34:10;170.0;;;117.0;;
53939;SDS011;39850;43.324;21.916;2022-11-03T16:38:46;184.0;;;127.0;;
53939;SDS011;39850;43.324;21.916;2022-11-03T16:43:23;184.0;;;127.0;;
53939;SDS011;39850;43.324;21.916;2022-11-03T16:48:00;184.0;;;127.0;;
53939;SDS011;39850;43.324;21.916;2022-11-03T16:52:37;184.0;;;127.0;;
53939;SDS011;39850;43.324;21.916;2022-11-03T17:29:43;201.0;;;141.0;;
53939;SDS011;39850;43.324;21.916;2022-11-03T17:34:24;201.0;;;141.0;;
53939;SDS011;39850;43.324;21.916;2022-11-03T17:39:02;198.0;;;138.0;;
53939;SDS011;39850;43.324;21.916;2022-11-03T17:43:39;198.0;;;138.0;;
53939;SDS011;39850;43.324;21.916;2022-11-03T17:48:16;201.0;;;141.0;;
53939;SDS011;39850;43.324;21.916;2022-11-03T17:52:53;201.0;;;141.0;;
53939;SDS011;39850;43.324;21.916;2022-11-03T17:57:31;204.0;;;142.0;;
53939;SDS011;39850;43.324;21.916;2022-11-03T18:02:19;204.0;;;142.0;;
53939;SDS011;39850;43.324;21.916;2022-11-03T18:07:00;212.0;;;148.0;;
53939;SDS011;39850;43.324;21.916;2022-11-03T18:11:42;212.0;;;148.0;;
53939;SDS011;39850;43.324;21.916;2022-11-03T18:48:56;146.0;;;100.0;;
53939;SDS011;39850;43.324;21.916;2022-11-03T18:53:32;146.0;;;100.0;;
53939;SDS011;39850;43.324;21.916;2022-11-03T18:58:21;146.0;;;100.0;;
53939;SDS011;39850;43.324;21.916;2022-11-03T19:02:59;146.0;;;100.0;;
53939;SDS011;39850;43.324;21.916;2022-11-03T19:07:37;140.0;;;96.0;;
53939;SDS011;39850;43.324;21.916;2022-11-03T19:12:15;140.0;;;96.0;;
53939;SDS011;39850;43.324;21.916;2022-11-03T19:16:54;133.0;;;93.0;;
53939;SDS011;39850;43.324;21.916;2022-11-03T19:21:31;133.0;;;93.0;;
53939;SDS011;39850;43.324;21.916;2022-11-03T19:26:23;133.0;;;93.0;;
53939;SDS011;39850;43.324;21.916;2022-11-03T19:31:31;133.0;;;93.0;;
53939;SDS011;39850;43.324;21.916;2022-11-03T19:36:14;133.0;;;93.0;;
53939;SDS011;39850;43.324;21.916;2022-11-03T20:09:06;130.0;;;91.0;;
53939;SDS011;39850;43.324;21.916;2022-11-03T20:13:48;130.0;;;91.0;;
53939;SDS011;39850;43.324;21.916;2022-11-03T20:18:25;138.0;;;96.0;;
53939;SDS011;39850;43.324;21.916;2022-11-03T20:23:12;138.0;;;96.0;;
53939;SDS011;39850;43.324;21.916;2022-11-03T20:27:58;147.0;;;100.0;;
53939;SDS011;39850;43.324;21.916;2022-11-03T20:32:35;147.0;;;100.0;;
53939;SDS011;39850;43.324;21.916;2022-11-03T20:37:19;148.0;;;101.0;;
53939;SDS011;39850;43.324;21.916;2022-11-03T20:41:56;148.0;;;101.0;;
53939;SDS011;39850;43.324;21.916;2022-11-03T20:46:33;149.0;;;102.0;;
53939;SDS011;39850;43.324;21.916;2022-11-03T20:51:16;149.0;;;102.0;;
53939;SDS011;39850;43.324;21.916;2022-11-03T20:55:57;149.0;;;102.0;;
53939;SDS011;39850;43.324;21.916;2022-11-03T21:28:32;106.0;;;76.0;;
53939;SDS011;39850;43.324;21.916;2022-11-03T21:33:10;106.0;;;76.0;;
53939;SDS011;39850;43.324;21.916;2022-11-03T21:37:47;105.0;;;74.0;;
53939;SDS011;39850;43.324;21.916;2022-11-03T21:42:24;105.0;;;74.0;;
53939;SDS011;39850;43.324;21.916;2022-11-03T21:47:00;104.0;;;74.0;;
53939;SDS011;39850;43.324;21.916;2022-11-03T21:51:37;104.0;;;74.0;;
53939;SDS011;39850;43.324;21.916;2022-11-03T21:56:15;104.0;;;74.0;;
53939;SDS011;39850;43.324;21.916;2022-11-03T22:00:52;103.0;;;74.0;;
53939;SDS011;39850;43.324;21.916;2022-11-03T22:05:29;103.0;;;74.0;;
53939;SDS011;39850;43.324;21.916;2022-11-03T22:10:08;102.0;;;74.0;;
53939;SDS011;39850;43.324;21.916;2022-11-03T22:14:45;102.0;;;74.0;;
53939;SDS011;39850;43.324;21.916;2022-11-03T22:47:20;109.0;;;81.0;;
53939;SDS011;39850;43.324;21.916;2022-11-03T22:51:57;109.0;;;81.0;;
53939;SDS011;39850;43.324;21.916;2022-11-03T22:56:33;109.0;;;81.0;;
53939;SDS011;39850;43.324;21.916;2022-11-03T23:01:18;114.0;;;84.0;;
53939;SDS011;39850;43.324;21.916;2022-11-03T23:06:03;114.0;;;84.0;;
53939;SDS011;39850;43.324;21.916;2022-11-03T23:10:44;119.0;;;86.0;;
53939;SDS011;39850;43.324;21.916;2022-11-03T23:15:20;119.0;;;86.0;;
53939;SDS011;39850;43.324;21.916;2022-11-03T23:19:57;121.0;;;87.0;;
53939;SDS011;39850;43.324;21.916;2022-11-03T23:24:34;121.0;;;87.0;;
53939;SDS011;39850;43.324;21.916;2022-11-03T23:29:14;123.0;;;88.0;;
53939;SDS011;39850;43.324;21.916;2022-11-03T23:33:52;123.0;;;88.0;;
